sensor_id;sensor_type;location;lat;lon;timestamp;pressure;altitude;pressure_sealevel;temperature;humidity
50349;BME280;36250;48.740;22.174;2023-05-16T00:01:25;100100.06;;;14.91;87.69
50349;BME280;36250;48.740;22.174;2023-05-16T00:03:54;100101.41;;;14.94;87.57
50349;BME280;36250;48.740;22.174;2023-05-16T00:06:20;100100.03;;;14.96;87.61
50349;BME280;36250;48.740;22.174;2023-05-16T00:08:47;100100.84;;;14.97;87.52
50349;BME280;36250;48.740;22.174;2023-05-16T00:11:13;100107.16;;;14.92;87.55
50349;BME280;36250;48.740;22.174;2023-05-16T00:13:38;100109.91;;;14.92;87.45
50349;BME280;36250;48.740;22.174;2023-05-16T00:16:06;100116.75;;;14.95;87.41
50349;BME280;36250;48.740;22.174;2023-05-16T00:18:32;100114.53;;;14.97;87.41
50349;BME280;36250;48.740;22.174;2023-05-16T00:20:57;100117.00;;;14.98;87.40
50349;BME280;36250;48.740;22.174;2023-05-16T00:23:23;100123.03;;;15.00;87.33
50349;BME280;36250;48.740;22.174;2023-05-16T00:25:48;100115.38;;;14.97;87.24
50349;BME280;36250;48.740;22.174;2023-05-16T00:28:13;100120.31;;;14.95;87.34
50349;BME280;36250;48.740;22.174;2023-05-16T00:30:39;100120.03;;;14.97;87.48
50349;BME280;36250;48.740;22.174;2023-05-16T00:33:05;100111.53;;;14.98;87.29
50349;BME280;36250;48.740;22.174;2023-05-16T00:35:30;100102.19;;;14.99;87.36
50349;BME280;36250;48.740;22.174;2023-05-16T00:37:55;100100.56;;;14.98;87.52
50349;BME280;36250;48.740;22.174;2023-05-16T00:40:21;100111.53;;;14.98;87.32
50349;BME280;36250;48.740;22.174;2023-05-16T00:42:46;100114.81;;;15.00;87.66
50349;BME280;36250;48.740;22.174;2023-05-16T00:45:12;100120.81;;;15.02;87.49
50349;BME280;36250;48.740;22.174;2023-05-16T00:47:37;100118.63;;;14.99;87.00
50349;BME280;36250;48.740;22.174;2023-05-16T00:50:03;100117.03;;;14.93;87.36
50349;BME280;36250;48.740;22.174;2023-05-16T00:52:30;100114.00;;;14.95;87.41
50349;BME280;36250;48.740;22.174;2023-05-16T00:54:57;100118.09;;;14.97;87.46
50349;BME280;36250;48.740;22.174;2023-05-16T00:57:23;100119.75;;;14.98;87.42
50349;BME280;36250;48.740;22.174;2023-05-16T00:59:48;100124.66;;;15.01;87.34
50349;BME280;36250;48.740;22.174;2023-05-16T01:02:14;100123.56;;;15.02;87.25
50349;BME280;36250;48.740;22.174;2023-05-16T01:04:40;100127.66;;;15.05;87.13
50349;BME280;36250;48.740;22.174;2023-05-16T01:07:06;100124.63;;;15.06;86.96
50349;BME280;36250;48.740;22.174;2023-05-16T01:09:32;100116.97;;;15.08;87.13
50349;BME280;36250;48.740;22.174;2023-05-16T01:14:48;100118.31;;;15.11;86.79
50349;BME280;36250;48.740;22.174;2023-05-16T01:27:42;100126.25;;;15.12;86.94
50349;BME280;36250;48.740;22.174;2023-05-16T01:30:17;100121.59;;;15.13;86.90
50349;BME280;36250;48.740;22.174;2023-05-16T01:32:42;100108.44;;;15.10;86.96
50349;BME280;36250;48.740;22.174;2023-05-16T01:35:10;100116.38;;;15.11;86.96
50349;BME280;36250;48.740;22.174;2023-05-16T01:37:56;100112.56;;;15.12;87.06
50349;BME280;36250;48.740;22.174;2023-05-16T01:40:30;100116.94;;;15.13;87.02
50349;BME280;36250;48.740;22.174;2023-05-16T01:43:04;100120.47;;;15.14;87.06
50349;BME280;36250;48.740;22.174;2023-05-16T01:45:33;100122.13;;;15.15;87.03
50349;BME280;36250;48.740;22.174;2023-05-16T01:48:07;100119.69;;;15.13;86.85
50349;BME280;36250;48.740;22.174;2023-05-16T01:50:37;100118.59;;;15.09;86.81
50349;BME280;36250;48.740;22.174;2023-05-16T01:53:14;100113.09;;;15.09;86.81
50349;BME280;36250;48.740;22.174;2023-05-16T01:55:44;100104.06;;;15.09;87.00
50349;BME280;36250;48.740;22.174;2023-05-16T01:58:12;100113.66;;;15.06;87.08
50349;BME280;36250;48.740;22.174;2023-05-16T02:00:39;100118.91;;;15.03;87.28
50349;BME280;36250;48.740;22.174;2023-05-16T02:03:04;100113.69;;;15.01;87.41
50349;BME280;36250;48.740;22.174;2023-05-16T02:05:30;100125.78;;;15.00;87.46
50349;BME280;36250;48.740;22.174;2023-05-16T02:07:56;100126.31;;;15.02;87.52
50349;BME280;36250;48.740;22.174;2023-05-16T02:10:21;100124.41;;;15.03;87.57
50349;BME280;36250;48.740;22.174;2023-05-16T02:12:48;100123.56;;;15.02;87.50
50349;BME280;36250;48.740;22.174;2023-05-16T02:15:14;100117.81;;;14.99;87.45
50349;BME280;36250;48.740;22.174;2023-05-16T02:17:39;100125.25;;;14.98;87.52
50349;BME280;36250;48.740;22.174;2023-05-16T02:20:06;100120.28;;;15.00;87.58
50349;BME280;36250;48.740;22.174;2023-05-16T02:22:33;100108.78;;;15.03;87.75
50349;BME280;36250;48.740;22.174;2023-05-16T02:25:00;100121.34;;;15.04;87.65
50349;BME280;36250;48.740;22.174;2023-05-16T02:27:25;100117.53;;;15.05;87.74
50349;BME280;36250;48.740;22.174;2023-05-16T02:29:50;100120.53;;;15.04;87.57
50349;BME280;36250;48.740;22.174;2023-05-16T02:32:16;100126.84;;;15.04;87.69
50349;BME280;36250;48.740;22.174;2023-05-16T02:34:41;100115.03;;;15.04;87.75
50349;BME280;36250;48.740;22.174;2023-05-16T02:37:07;100111.50;;;15.03;88.03
50349;BME280;36250;48.740;22.174;2023-05-16T02:39:32;100106.03;;;15.03;87.81
50349;BME280;36250;48.740;22.174;2023-05-16T02:41:58;100113.13;;;15.04;87.96
50349;BME280;36250;48.740;22.174;2023-05-16T02:44:23;100113.44;;;15.03;87.78
50349;BME280;36250;48.740;22.174;2023-05-16T02:46:48;100099.44;;;15.04;88.00
50349;BME280;36250;48.740;22.174;2023-05-16T02:49:14;100091.75;;;15.01;88.02
50349;BME280;36250;48.740;22.174;2023-05-16T02:51:39;100105.47;;;15.01;88.25
50349;BME280;36250;48.740;22.174;2023-05-16T02:54:04;100110.16;;;15.01;88.21
50349;BME280;36250;48.740;22.174;2023-05-16T02:56:32;100118.63;;;14.99;88.29
50349;BME280;36250;48.740;22.174;2023-05-16T02:58:57;100118.09;;;14.97;88.35
50349;BME280;36250;48.740;22.174;2023-05-16T03:01:22;100114.53;;;14.97;88.27
50349;BME280;36250;48.740;22.174;2023-05-16T03:03:48;100126.84;;;14.99;88.50
50349;BME280;36250;48.740;22.174;2023-05-16T03:06:13;100124.94;;;15.00;88.41
50349;BME280;36250;48.740;22.174;2023-05-16T03:08:38;100121.38;;;14.99;88.69
50349;BME280;36250;48.740;22.174;2023-05-16T03:11:04;100114.81;;;15.00;88.59
50349;BME280;36250;48.740;22.174;2023-05-16T03:13:29;100127.97;;;15.03;88.62
50349;BME280;36250;48.740;22.174;2023-05-16T03:15:55;100121.91;;;15.01;88.73
50349;BME280;36250;48.740;22.174;2023-05-16T03:18:20;100132.88;;;15.01;88.47
50349;BME280;36250;48.740;22.174;2023-05-16T03:20:46;100133.69;;;15.02;88.48
50349;BME280;36250;48.740;22.174;2023-05-16T03:23:11;100127.41;;;15.01;88.84
50349;BME280;36250;48.740;22.174;2023-05-16T03:25:37;100129.03;;;15.02;88.79
50349;BME280;36250;48.740;22.174;2023-05-16T03:28:04;100123.56;;;15.02;88.71
50349;BME280;36250;48.740;22.174;2023-05-16T03:30:30;100124.41;;;15.03;88.66
50349;BME280;36250;48.740;22.174;2023-05-16T03:32:55;100120.53;;;15.04;88.75
50349;BME280;36250;48.740;22.174;2023-05-16T03:35:21;100115.88;;;15.04;88.78
50349;BME280;36250;48.740;22.174;2023-05-16T03:37:46;100117.53;;;15.05;88.79
50349;BME280;36250;48.740;22.174;2023-05-16T03:40:12;100124.06;;;15.09;88.83
50349;BME280;36250;48.740;22.174;2023-05-16T03:42:37;100129.00;;;15.12;88.74
50349;BME280;36250;48.740;22.174;2023-05-16T03:45:06;100139.41;;;15.16;88.71
50349;BME280;36250;48.740;22.174;2023-05-16T03:47:32;100135.00;;;15.20;88.61
50349;BME280;36250;48.740;22.174;2023-05-16T03:49:57;100145.41;;;15.23;88.85
50349;BME280;36250;48.740;22.174;2023-05-16T03:52:23;100154.69;;;15.27;88.34
50349;BME280;36250;48.740;22.174;2023-05-16T03:54:48;100145.09;;;15.29;88.44
50349;BME280;36250;48.740;22.174;2023-05-16T03:57:14;100139.88;;;15.33;88.16
50349;BME280;36250;48.740;22.174;2023-05-16T03:59:40;100146.13;;;15.38;88.17
50349;BME280;36250;48.740;22.174;2023-05-16T04:02:05;100138.16;;;15.42;87.80
50349;BME280;36250;48.740;22.174;2023-05-16T04:04:31;100123.34;;;15.43;87.83
50349;BME280;36250;48.740;22.174;2023-05-16T04:06:56;100127.19;;;15.47;87.98
50349;BME280;36250;48.740;22.174;2023-05-16T04:09:21;100135.09;;;15.53;87.83
50349;BME280;36250;48.740;22.174;2023-05-16T04:11:47;100139.19;;;15.56;87.58
50349;BME280;36250;48.740;22.174;2023-05-16T04:14:13;100152.88;;;15.61;87.59
50349;BME280;36250;48.740;22.174;2023-05-16T04:16:39;100147.94;;;15.63;87.23
50349;BME280;36250;48.740;22.174;2023-05-16T04:19:05;100145.19;;;15.63;87.32
50349;BME280;36250;48.740;22.174;2023-05-16T04:21:30;100150.09;;;15.66;87.03
50349;BME280;36250;48.740;22.174;2023-05-16T04:23:55;100147.63;;;15.69;86.89
50349;BME280;36250;48.740;22.174;2023-05-16T04:26:21;100143.50;;;15.72;86.95
50349;BME280;36250;48.740;22.174;2023-05-16T04:28:47;100143.16;;;15.78;87.00
50349;BME280;36250;48.740;22.174;2023-05-16T04:31:13;100147.50;;;15.85;86.73
50349;BME280;36250;48.740;22.174;2023-05-16T04:33:39;100156.56;;;15.85;86.68
50349;BME280;36250;48.740;22.174;2023-05-16T04:36:04;100157.94;;;15.83;86.67
50349;BME280;36250;48.740;22.174;2023-05-16T04:38:30;100177.19;;;15.77;86.49
50349;BME280;36250;48.740;22.174;2023-05-16T04:40:56;100166.50;;;15.76;86.39
50349;BME280;36250;48.740;22.174;2023-05-16T04:43:22;100166.50;;;15.76;86.55
50349;BME280;36250;48.740;22.174;2023-05-16T04:45:47;100158.81;;;15.78;86.48
50349;BME280;36250;48.740;22.174;2023-05-16T04:48:13;100167.00;;;15.83;86.18
50349;BME280;36250;48.740;22.174;2023-05-16T04:50:39;100151.38;;;15.84;86.14
50349;BME280;36250;48.740;22.174;2023-05-16T04:53:05;100142.25;;;15.88;86.17
50349;BME280;36250;48.740;22.174;2023-05-16T04:55:30;100153.16;;;15.98;86.07
50349;BME280;36250;48.740;22.174;2023-05-16T04:57:56;100154.22;;;16.02;85.73
50349;BME280;36250;48.740;22.174;2023-05-16T05:00:21;100163.25;;;16.08;85.56
50349;BME280;36250;48.740;22.174;2023-05-16T05:02:47;100162.16;;;16.09;84.97
50349;BME280;36250;48.740;22.174;2023-05-16T05:05:12;100151.69;;;16.11;84.63
50349;BME280;36250;48.740;22.174;2023-05-16T05:07:37;100153.56;;;16.15;84.80
50349;BME280;36250;48.740;22.174;2023-05-16T05:10:03;100157.34;;;16.24;84.54
50349;BME280;36250;48.740;22.174;2023-05-16T05:12:30;100162.78;;;16.29;84.08
50349;BME280;36250;48.740;22.174;2023-05-16T05:14:56;100166.84;;;16.37;84.37
50349;BME280;36250;48.740;22.174;2023-05-16T05:17:21;100164.81;;;16.48;84.24
50349;BME280;36250;48.740;22.174;2023-05-16T05:19:47;100181.28;;;16.53;83.92
50349;BME280;36250;48.740;22.174;2023-05-16T05:22:13;100182.09;;;16.53;83.76
50349;BME280;36250;48.740;22.174;2023-05-16T05:24:39;100187.25;;;16.60;83.81
50349;BME280;36250;48.740;22.174;2023-05-16T05:27:05;100177.00;;;16.65;83.11
50349;BME280;36250;48.740;22.174;2023-05-16T05:29:30;100163.53;;;16.69;83.19
50349;BME280;36250;48.740;22.174;2023-05-16T05:31:55;100159.63;;;16.75;82.82
50349;BME280;36250;48.740;22.174;2023-05-16T05:34:21;100163.72;;;16.77;82.47
50349;BME280;36250;48.740;22.174;2023-05-16T05:36:46;100163.41;;;16.79;82.36
50349;BME280;36250;48.740;22.174;2023-05-16T05:39:11;100166.09;;;16.84;82.35
50349;BME280;36250;48.740;22.174;2023-05-16T05:41:37;100167.09;;;16.93;82.46
50349;BME280;36250;48.740;22.174;2023-05-16T05:44:03;100181.38;;;16.95;81.09
50349;BME280;36250;48.740;22.174;2023-05-16T05:46:28;100179.22;;;16.92;81.50
50349;BME280;36250;48.740;22.174;2023-05-16T05:48:54;100192.41;;;16.90;81.03
50349;BME280;36250;48.740;22.174;2023-05-16T05:51:19;100188.63;;;16.86;81.00
50349;BME280;36250;48.740;22.174;2023-05-16T05:53:45;100199.56;;;16.91;81.27
50349;BME280;36250;48.740;22.174;2023-05-16T05:56:10;100201.16;;;16.97;81.34
50349;BME280;36250;48.740;22.174;2023-05-16T05:58:36;100193.97;;;17.01;80.69
50349;BME280;36250;48.740;22.174;2023-05-16T06:01:01;100200.84;;;16.98;79.71
50349;BME280;36250;48.740;22.174;2023-05-16T06:03:26;100199.47;;;17.01;80.18
50349;BME280;36250;48.740;22.174;2023-05-16T06:05:52;100188.63;;;17.09;79.30
50349;BME280;36250;48.740;22.174;2023-05-16T06:08:17;100204.47;;;17.18;79.19
50349;BME280;36250;48.740;22.174;2023-05-16T06:10:42;100207.41;;;17.26;79.21
50349;BME280;36250;48.740;22.174;2023-05-16T06:13:08;100210.69;;;17.28;78.57
50349;BME280;36250;48.740;22.174;2023-05-16T06:15:33;100206.34;;;17.22;78.20
50349;BME280;36250;48.740;22.174;2023-05-16T06:17:58;100195.13;;;17.19;77.43
50349;BME280;36250;48.740;22.174;2023-05-16T06:20:24;100200.91;;;17.17;77.95
50349;BME280;36250;48.740;22.174;2023-05-16T06:22:50;100193.09;;;17.24;78.02
50349;BME280;36250;48.740;22.174;2023-05-16T06:25:15;100193.25;;;17.14;78.18
50349;BME280;36250;48.740;22.174;2023-05-16T06:27:40;100202.66;;;17.08;78.46
50349;BME280;36250;48.740;22.174;2023-05-16T06:30:06;100208.47;;;17.06;79.06
50349;BME280;36250;48.740;22.174;2023-05-16T06:32:32;100214.78;;;17.07;78.67
50349;BME280;36250;48.740;22.174;2023-05-16T06:34:58;100210.56;;;17.15;78.45
50349;BME280;36250;48.740;22.174;2023-05-16T06:37:23;100201.41;;;17.19;78.41
50349;BME280;36250;48.740;22.174;2023-05-16T06:39:50;100194.19;;;17.28;78.22
50349;BME280;36250;48.740;22.174;2023-05-16T06:42:15;100205.75;;;17.25;78.02
50349;BME280;36250;48.740;22.174;2023-05-16T06:44:41;100199.41;;;17.06;77.91
50349;BME280;36250;48.740;22.174;2023-05-16T06:47:06;100195.53;;;17.07;78.73
50349;BME280;36250;48.740;22.174;2023-05-16T06:49:32;100190.03;;;17.07;79.04
50349;BME280;36250;48.740;22.174;2023-05-16T06:51:58;100202.78;;;17.22;79.02
50349;BME280;36250;48.740;22.174;2023-05-16T06:54:23;100204.13;;;17.24;77.86
50349;BME280;36250;48.740;22.174;2023-05-16T06:56:48;100203.00;;;17.25;76.74
50349;BME280;36250;48.740;22.174;2023-05-16T06:59:14;100199.22;;;17.21;77.34
50349;BME280;36250;48.740;22.174;2023-05-16T07:01:39;100203.53;;;17.27;76.48
50349;BME280;36250;48.740;22.174;2023-05-16T07:04:05;100194.56;;;17.40;76.81
50349;BME280;36250;48.740;22.174;2023-05-16T07:06:31;100197.94;;;17.56;76.30
50349;BME280;36250;48.740;22.174;2023-05-16T07:08:56;100196.78;;;17.62;75.79
50349;BME280;36250;48.740;22.174;2023-05-16T07:11:22;100198.56;;;17.71;76.48
50349;BME280;36250;48.740;22.174;2023-05-16T07:13:47;100209.06;;;17.88;75.81
50349;BME280;36250;48.740;22.174;2023-05-16T07:16:12;100199.00;;;17.79;74.86
50349;BME280;36250;48.740;22.174;2023-05-16T07:18:38;100201.09;;;17.87;75.28
50349;BME280;36250;48.740;22.174;2023-05-16T07:21:03;100206.16;;;17.80;75.34
50349;BME280;36250;48.740;22.174;2023-05-16T07:23:28;100202.06;;;17.77;74.69
50349;BME280;36250;48.740;22.174;2023-05-16T07:25:54;100200.66;;;17.80;75.14
50349;BME280;36250;48.740;22.174;2023-05-16T07:28:19;100204.28;;;17.94;74.54
50349;BME280;36250;48.740;22.174;2023-05-16T07:30:46;100205.13;;;17.94;74.02
50349;BME280;36250;48.740;22.174;2023-05-16T07:33:11;100203.72;;;17.97;74.71
50349;BME280;36250;48.740;22.174;2023-05-16T07:35:36;100207.28;;;17.97;74.70
50349;BME280;36250;48.740;22.174;2023-05-16T07:38:03;100200.34;;;18.00;74.33
50349;BME280;36250;48.740;22.174;2023-05-16T07:40:28;100200.19;;;18.10;73.79
50349;BME280;36250;48.740;22.174;2023-05-16T07:42:54;100199.38;;;18.09;74.30
50349;BME280;36250;48.740;22.174;2023-05-16T07:45:19;100210.00;;;18.16;73.67
50349;BME280;36250;48.740;22.174;2023-05-16T07:47:45;100196.75;;;18.18;73.08
50349;BME280;36250;48.740;22.174;2023-05-16T07:50:10;100203.47;;;18.12;74.16
50349;BME280;36250;48.740;22.174;2023-05-16T07:52:36;100201.81;;;18.11;73.93
50349;BME280;36250;48.740;22.174;2023-05-16T07:55:02;100210.25;;;18.01;74.09
50349;BME280;36250;48.740;22.174;2023-05-16T07:57:27;100218.66;;;18.09;74.34
50349;BME280;36250;48.740;22.174;2023-05-16T07:59:53;100210.84;;;17.98;73.52
50349;BME280;36250;48.740;22.174;2023-05-16T08:02:19;100209.13;;;18.02;74.47
50349;BME280;36250;48.740;22.174;2023-05-16T08:04:44;100210.75;;;18.03;74.02
50349;BME280;36250;48.740;22.174;2023-05-16T08:07:10;100208.75;;;18.08;74.14
50349;BME280;36250;48.740;22.174;2023-05-16T08:09:35;100201.31;;;18.09;74.34
50349;BME280;36250;48.740;22.174;2023-05-16T08:12:01;100215.09;;;18.09;74.16
50349;BME280;36250;48.740;22.174;2023-05-16T08:14:29;100217.69;;;18.00;74.40
50349;BME280;36250;48.740;22.174;2023-05-16T08:16:59;100220.94;;;18.02;74.03
50349;BME280;36250;48.740;22.174;2023-05-16T08:19:25;100228.50;;;17.97;74.54
50349;BME280;36250;48.740;22.174;2023-05-16T08:21:51;100224.16;;;17.91;75.10
50349;BME280;36250;48.740;22.174;2023-05-16T08:24:16;100220.44;;;17.82;75.48
50349;BME280;36250;48.740;22.174;2023-05-16T08:26:42;100213.53;;;17.84;75.65
50349;BME280;36250;48.740;22.174;2023-05-16T08:29:07;100204.97;;;17.86;75.79
50349;BME280;36250;48.740;22.174;2023-05-16T08:31:33;100211.34;;;18.00;75.24
50349;BME280;36250;48.740;22.174;2023-05-16T08:33:58;100207.56;;;17.96;74.98
50349;BME280;36250;48.740;22.174;2023-05-16T08:36:25;100208.91;;;17.98;75.18
50349;BME280;36250;48.740;22.174;2023-05-16T08:38:51;100213.81;;;18.01;74.49
50349;BME280;36250;48.740;22.174;2023-05-16T08:41:16;100208.53;;;18.05;74.08
50349;BME280;36250;48.740;22.174;2023-05-16T08:43:41;100210.59;;;18.13;73.33
50349;BME280;36250;48.740;22.174;2023-05-16T08:46:07;100199.59;;;18.13;74.11
50349;BME280;36250;48.740;22.174;2023-05-16T08:48:33;100202.13;;;18.09;73.12
50349;BME280;36250;48.740;22.174;2023-05-16T08:51:00;100201.38;;;18.04;74.06
50349;BME280;36250;48.740;22.174;2023-05-16T08:53:31;100200.66;;;17.98;74.24
50349;BME280;36250;48.740;22.174;2023-05-16T08:56:02;100203.84;;;18.05;74.58
50349;BME280;36250;48.740;22.174;2023-05-16T08:58:28;100197.72;;;18.08;74.64
50349;BME280;36250;48.740;22.174;2023-05-16T09:00:55;100197.97;;;18.12;74.68
50349;BME280;36250;48.740;22.174;2023-05-16T09:03:20;100204.28;;;18.12;74.57
50349;BME280;36250;48.740;22.174;2023-05-16T09:05:48;100205.16;;;18.08;75.61
50349;BME280;36250;48.740;22.174;2023-05-16T09:08:14;100204.16;;;18.04;76.18
50349;BME280;36250;48.740;22.174;2023-05-16T09:10:39;100198.63;;;18.04;76.93
50349;BME280;36250;48.740;22.174;2023-05-16T09:13:05;100203.09;;;18.00;75.77
50349;BME280;36250;48.740;22.174;2023-05-16T09:15:31;100195.81;;;17.90;75.24
50349;BME280;36250;48.740;22.174;2023-05-16T09:17:59;100192.69;;;17.97;76.43
50349;BME280;36250;48.740;22.174;2023-05-16T09:20:25;100198.31;;;18.05;76.46
50349;BME280;36250;48.740;22.174;2023-05-16T09:22:56;100198.63;;;18.04;76.35
50349;BME280;36250;48.740;22.174;2023-05-16T09:25:23;100196.28;;;17.97;76.06
50349;BME280;36250;48.740;22.174;2023-05-16T09:27:53;100192.53;;;17.88;76.11
50349;BME280;36250;48.740;22.174;2023-05-16T09:30:23;100195.81;;;17.90;77.33
50349;BME280;36250;48.740;22.174;2023-05-16T09:32:52;100193.28;;;17.94;76.62
50349;BME280;36250;48.740;22.174;2023-05-16T09:35:19;100186.50;;;17.86;76.06
50349;BME280;36250;48.740;22.174;2023-05-16T09:37:48;100189.25;;;17.86;77.00
50349;BME280;36250;48.740;22.174;2023-05-16T09:40:14;100174.59;;;17.91;77.51
50349;BME280;36250;48.740;22.174;2023-05-16T09:42:40;100171.63;;;17.87;77.09
50349;BME280;36250;48.740;22.174;2023-05-16T09:45:06;100172.06;;;17.76;77.68
50349;BME280;36250;48.740;22.174;2023-05-16T09:47:35;100177.97;;;17.69;77.46
50349;BME280;36250;48.740;22.174;2023-05-16T09:50:09;100174.97;;;17.65;77.84
50349;BME280;36250;48.740;22.174;2023-05-16T09:52:36;100175.28;;;17.64;78.56
50349;BME280;36250;48.740;22.174;2023-05-16T09:55:05;100171.34;;;17.70;78.60
50349;BME280;36250;48.740;22.174;2023-05-16T09:57:31;100175.38;;;17.78;78.26
50349;BME280;36250;48.740;22.174;2023-05-16T09:59:58;100162.81;;;17.85;77.98
50349;BME280;36250;48.740;22.174;2023-05-16T10:02:25;100161.41;;;17.88;78.32
50349;BME280;36250;48.740;22.174;2023-05-16T10:04:51;100159.13;;;17.95;77.91
50349;BME280;36250;48.740;22.174;2023-05-16T10:07:16;100167.28;;;18.00;78.05
50349;BME280;36250;48.740;22.174;2023-05-16T10:09:43;100157.66;;;18.16;77.29
50349;BME280;36250;48.740;22.174;2023-05-16T10:12:12;100164.19;;;18.20;77.73
50349;BME280;36250;48.740;22.174;2023-05-16T10:14:40;100159.53;;;18.34;76.88
50349;BME280;36250;48.740;22.174;2023-05-16T10:17:07;100153.44;;;18.37;75.26
50349;BME280;36250;48.740;22.174;2023-05-16T10:19:38;100143.00;;;18.53;75.93
50349;BME280;36250;48.740;22.174;2023-05-16T10:22:05;100148.09;;;18.59;74.90
50349;BME280;36250;48.740;22.174;2023-05-16T10:24:42;100145.47;;;18.68;74.83
50349;BME280;36250;48.740;22.174;2023-05-16T10:27:08;100149.44;;;18.62;74.31
50349;BME280;36250;48.740;22.174;2023-05-16T10:29:35;100146.47;;;18.72;73.98
50349;BME280;36250;48.740;22.174;2023-05-16T10:32:02;100149.75;;;18.87;74.65
50349;BME280;36250;48.740;22.174;2023-05-16T10:34:28;100140.66;;;19.00;73.66
50349;BME280;36250;48.740;22.174;2023-05-16T10:36:53;100135.81;;;19.20;73.68
50349;BME280;36250;48.740;22.174;2023-05-16T10:39:19;100141.97;;;19.44;73.21
50349;BME280;36250;48.740;22.174;2023-05-16T10:41:46;100152.38;;;19.47;71.41
50349;BME280;36250;48.740;22.174;2023-05-16T10:44:13;100142.38;;;19.51;71.78
50349;BME280;36250;48.740;22.174;2023-05-16T10:46:42;100142.13;;;19.61;71.50
50349;BME280;36250;48.740;22.174;2023-05-16T10:49:22;100131.66;;;19.72;70.44
50349;BME280;36250;48.740;22.174;2023-05-16T10:52:06;100139.91;;;19.85;70.74
50349;BME280;36250;48.740;22.174;2023-05-16T10:54:36;100130.34;;;19.69;70.05
50349;BME280;36250;48.740;22.174;2023-05-16T10:57:23;100131.84;;;19.75;70.66
50349;BME280;36250;48.740;22.174;2023-05-16T10:59:50;100131.09;;;19.83;70.56
50349;BME280;36250;48.740;22.174;2023-05-16T11:02:22;100125.72;;;19.78;70.85
50349;BME280;36250;48.740;22.174;2023-05-16T11:04:49;100126.22;;;19.80;70.95
50349;BME280;36250;48.740;22.174;2023-05-16T11:07:18;100118.59;;;19.86;71.47
50349;BME280;36250;48.740;22.174;2023-05-16T11:09:44;100117.72;;;19.77;70.20
50349;BME280;36250;48.740;22.174;2023-05-16T11:12:11;100122.94;;;19.78;70.76
50349;BME280;36250;48.740;22.174;2023-05-16T11:14:39;100124.31;;;19.89;70.77
50349;BME280;36250;48.740;22.174;2023-05-16T11:17:12;100114.41;;;19.88;71.27
50349;BME280;36250;48.740;22.174;2023-05-16T11:19:42;100116.41;;;19.96;71.39
50349;BME280;36250;48.740;22.174;2023-05-16T11:22:09;100106.19;;;19.97;70.44
50349;BME280;36250;48.740;22.174;2023-05-16T11:24:37;100109.28;;;19.95;70.92
50349;BME280;36250;48.740;22.174;2023-05-16T11:27:04;100106.63;;;19.90;71.13
50349;BME280;36250;48.740;22.174;2023-05-16T11:29:34;100100.81;;;20.00;71.30
50349;BME280;36250;48.740;22.174;2023-05-16T11:32:00;100098.75;;;20.06;71.85
50349;BME280;36250;48.740;22.174;2023-05-16T11:34:26;100100.91;;;20.09;71.48
50349;BME280;36250;48.740;22.174;2023-05-16T11:36:52;100097.69;;;20.15;71.50
50349;BME280;36250;48.740;22.174;2023-05-16T11:39:17;100088.44;;;20.20;71.74
50349;BME280;36250;48.740;22.174;2023-05-16T11:41:48;100095.31;;;20.22;71.73
50349;BME280;36250;48.740;22.174;2023-05-16T11:44:13;100091.09;;;20.25;71.43
50349;BME280;36250;48.740;22.174;2023-05-16T11:46:39;100086.72;;;20.24;72.42
50349;BME280;36250;48.740;22.174;2023-05-16T11:49:06;100077.81;;;20.27;72.25
50349;BME280;36250;48.740;22.174;2023-05-16T11:51:32;100082.50;;;20.26;71.65
50349;BME280;36250;48.740;22.174;2023-05-16T11:53:59;100082.13;;;20.19;72.25
50349;BME280;36250;48.740;22.174;2023-05-16T11:56:26;100081.22;;;20.10;71.23
50349;BME280;36250;48.740;22.174;2023-05-16T11:58:51;100075.41;;;20.12;71.72
50349;BME280;36250;48.740;22.174;2023-05-16T12:01:17;100076.59;;;20.19;71.51
50349;BME280;36250;48.740;22.174;2023-05-16T12:03:43;100079.75;;;20.26;70.18
50349;BME280;36250;48.740;22.174;2023-05-16T12:06:08;100079.16;;;20.38;71.22
50349;BME280;36250;48.740;22.174;2023-05-16T12:08:34;100078.25;;;20.51;70.35
50349;BME280;36250;48.740;22.174;2023-05-16T12:11:00;100086.88;;;20.58;70.59
50349;BME280;36250;48.740;22.174;2023-05-16T12:13:25;100081.84;;;20.60;70.59
50349;BME280;36250;48.740;22.174;2023-05-16T12:15:51;100076.78;;;20.54;70.19
50349;BME280;36250;48.740;22.174;2023-05-16T12:18:17;100074.50;;;20.56;70.71
50349;BME280;36250;48.740;22.174;2023-05-16T12:20:43;100081.03;;;20.60;70.04
50349;BME280;36250;48.740;22.174;2023-05-16T12:23:10;100068.97;;;20.56;69.73
50349;BME280;36250;48.740;22.174;2023-05-16T12:25:36;100067.66;;;20.53;69.38
50349;BME280;36250;48.740;22.174;2023-05-16T12:28:08;100069.28;;;20.54;69.89
50349;BME280;36250;48.740;22.174;2023-05-16T12:30:34;100067.06;;;20.65;70.21
50349;BME280;36250;48.740;22.174;2023-05-16T12:33:07;100067.88;;;20.65;68.68
50349;BME280;36250;48.740;22.174;2023-05-16T12:35:34;100068.22;;;20.64;69.46
50349;BME280;36250;48.740;22.174;2023-05-16T12:38:04;100066.72;;;20.66;70.10
50349;BME280;36250;48.740;22.174;2023-05-16T12:40:30;100066.56;;;20.71;70.20
50349;BME280;36250;48.740;22.174;2023-05-16T12:42:55;100064.19;;;20.78;70.04
50349;BME280;36250;48.740;22.174;2023-05-16T12:45:21;100060.75;;;20.81;70.08
50349;BME280;36250;48.740;22.174;2023-05-16T12:47:47;100055.09;;;20.95;69.06
50349;BME280;36250;48.740;22.174;2023-05-16T12:50:14;100061.97;;;21.06;67.78